Terminal Aerodrome Forecast
Issued by NWS

Home | Current Version | Previous Version | Text Only | Print | Product List | Glossary On
Versions: 1 2 3 4 5 6 7 8 9 10 11 12 13 14 15 16
000
FTUS41 KBTV 260520
TAFMPV
TAF
KMPV 260520Z 2606/2706 00000KT P6SM SKC
     FM261600 16006KT P6SM SCT150
     FM262000 17006KT P6SM VCSH BKN050 OVC100
     FM270000 16006KT 3SM -RA BR OVC025
     FM270200 16007KT 4SM -FZRA BR OVC025=

USA.gov is the U.S. government's official web portal to all federal, state and local government web resources and services.